createdAt,value
2022-11-25T00:02:03.398Z,0.78
2022-11-25T00:04:37.101Z,0.84
2022-11-25T00:07:05.542Z,0.86
2022-11-25T00:09:33.866Z,0.68
2022-11-25T00:12:02.132Z,0.52
2022-11-25T00:14:31.834Z,0.50
2022-11-25T00:17:00.141Z,0.52
2022-11-25T00:19:28.440Z,0.58
2022-11-25T00:21:56.732Z,0.84
2022-11-25T00:24:24.966Z,0.92
2022-11-25T00:26:53.259Z,0.77
2022-11-25T00:29:21.518Z,0.86
2022-11-25T00:31:51.453Z,0.95
2022-11-25T00:34:19.943Z,0.65
2022-11-25T00:36:48.305Z,0.92
2022-11-25T00:39:18.558Z,0.62
2022-11-25T00:42:05.631Z,0.55
2022-11-25T00:44:41.130Z,0.44
2022-11-25T00:47:13.032Z,0.25
2022-11-25T00:49:45.078Z,0.44
2022-11-25T00:52:15.887Z,0.55
2022-11-25T00:54:44.990Z,0.37
2022-11-25T00:57:13.474Z,0.16
2022-11-25T00:59:41.930Z,-0.02
2022-11-25T01:02:12.360Z,-0.05
2022-11-25T01:04:40.721Z,0.26
2022-11-25T01:07:09.443Z,0.18
2022-11-25T01:09:37.885Z,0.09
2022-11-25T01:12:06.681Z,0.18
2022-11-25T01:14:36.139Z,0.02
2022-11-25T01:17:04.679Z,-0.04
2022-11-25T01:19:38.577Z,-0.08
2022-11-25T01:22:07.485Z,-0.13
2022-11-25T01:24:36.722Z,-0.06
2022-11-25T01:27:05.281Z,-0.04
2022-11-25T01:29:33.511Z,0.04
2022-11-25T01:32:01.829Z,-0.07
2022-11-25T01:34:32.597Z,0.48
2022-11-25T01:37:03.127Z,0.27
2022-11-25T01:39:33.069Z,0.20
2022-11-25T01:42:02.538Z,0.12
2022-11-25T01:44:32.174Z,0.07
2022-11-25T01:47:05.773Z,0.20
2022-11-25T01:49:38.451Z,-0.02
2022-11-25T01:52:13.510Z,0.17
2022-11-25T01:54:47.744Z,0.43
2022-11-25T01:57:19.380Z,0.45
2022-11-25T01:59:51.034Z,0.56
2022-11-25T02:02:19.604Z,0.45
2022-11-25T02:04:48.311Z,0.07
2022-11-25T02:07:22.079Z,-0.17
2022-11-25T02:09:51.567Z,-0.33
2022-11-25T02:12:21.454Z,-0.29
2022-11-25T02:14:50.813Z,-0.14
2022-11-25T02:17:19.356Z,-0.27
2022-11-25T02:20:00.133Z,-0.49
2022-11-25T02:22:40.553Z,-0.52
2022-11-25T02:25:14.867Z,-0.53
2022-11-25T02:27:44.725Z,-0.51
2022-11-25T02:30:13.803Z,-0.46
2022-11-25T02:32:44.879Z,-0.52
2022-11-25T02:35:28.727Z,-0.76
2022-11-25T02:38:01.282Z,-0.73
2022-11-25T02:40:31.447Z,-0.70
2022-11-25T02:43:01.801Z,-0.69
2022-11-25T02:45:38.764Z,-0.42
2022-11-25T02:48:07.277Z,-0.31
2022-11-25T02:50:35.527Z,-0.48
2022-11-25T02:53:03.815Z,-0.72
2022-11-25T02:55:33.842Z,-0.70
2022-11-25T02:58:02.150Z,-0.72
2022-11-25T03:00:30.525Z,-0.67
2022-11-25T03:02:58.834Z,-0.71
2022-11-25T03:05:27.306Z,-0.84
2022-11-25T03:07:55.623Z,-0.93
2022-11-25T03:10:24.397Z,-0.97
2022-11-25T03:12:54.148Z,-0.98
2022-11-25T03:15:23.970Z,-0.85
2022-11-25T03:17:52.458Z,-0.86
2022-11-25T03:20:21.252Z,-0.75
2022-11-25T03:22:49.702Z,-0.60
2022-11-25T03:25:18.480Z,-0.45
2022-11-25T03:27:47.012Z,-0.41
2022-11-25T03:30:19.150Z,-0.48
2022-11-25T03:32:49.662Z,-0.69
2022-11-25T03:35:18.455Z,-0.78
2022-11-25T03:37:46.963Z,-0.90
2022-11-25T03:40:16.724Z,-1.00
2022-11-25T03:42:46.559Z,-1.05
2022-11-25T03:45:16.946Z,-1.09
2022-11-25T03:47:47.556Z,-1.02
2022-11-25T03:50:16.556Z,-0.90
2022-11-25T03:52:46.935Z,-0.86
2022-11-25T03:55:15.389Z,-0.84
2022-11-25T03:57:46.843Z,-0.76
2022-11-25T04:00:16.948Z,-0.52
2022-11-25T04:03:04.270Z,-0.33
2022-11-25T04:05:34.296Z,-0.54
2022-11-25T04:08:07.145Z,-0.74
2022-11-25T04:10:36.690Z,-0.89
2022-11-25T04:13:05.838Z,-0.93
2022-11-25T04:15:39.901Z,-1.03
2022-11-25T04:18:08.932Z,-1.16
2022-11-25T04:20:37.232Z,-1.10
2022-11-25T04:23:08.982Z,-1.03
2022-11-25T04:25:44.736Z,-0.94
2022-11-25T04:28:24.387Z,-0.81
2022-11-25T04:30:54.299Z,-0.61
2022-11-25T04:33:22.794Z,-0.54
2022-11-25T04:35:51.126Z,-0.63
2022-11-25T04:38:19.420Z,-0.69
2022-11-25T04:40:49.677Z,-0.76
2022-11-25T04:43:21.423Z,-0.73
2022-11-25T04:46:18.720Z,-0.75
2022-11-25T04:48:50.468Z,-0.74
2022-11-25T04:51:19.787Z,-0.72
2022-11-25T04:53:51.916Z,-0.71
2022-11-25T04:56:20.938Z,-0.80
2022-11-25T04:59:10.447Z,-0.98
2022-11-25T05:01:43.832Z,-1.05
2022-11-25T05:04:30.979Z,-1.12
2022-11-25T05:06:59.354Z,-1.15
2022-11-25T05:09:28.161Z,-1.25
2022-11-25T05:12:09.208Z,-1.30
2022-11-25T05:14:37.774Z,-1.36
2022-11-25T05:17:08.286Z,-1.42
2022-11-25T05:19:37.575Z,-1.47
2022-11-25T05:22:07.150Z,-1.47
2022-11-25T05:24:35.564Z,-1.53
2022-11-25T05:27:04.613Z,-1.62
2022-11-25T05:29:33.690Z,-1.65
2022-11-25T05:32:02.294Z,-1.63
2022-11-25T05:34:32.417Z,-1.66
2022-11-25T05:37:01.124Z,-1.76
2022-11-25T05:39:30.846Z,-1.74
2022-11-25T05:42:17.137Z,-1.75
2022-11-25T05:44:45.548Z,-1.81
2022-11-25T05:47:14.515Z,-1.80
2022-11-25T05:49:44.964Z,-1.79
2022-11-25T05:52:13.659Z,-1.88
2022-11-25T05:54:54.412Z,-1.89
2022-11-25T05:57:25.503Z,-1.95
2022-11-25T06:00:06.095Z,-1.97
2022-11-25T06:02:44.938Z,-1.94
2022-11-25T06:05:17.649Z,-1.97
2022-11-25T06:07:46.169Z,-1.92
2022-11-25T06:10:17.655Z,-1.88
2022-11-25T06:12:47.979Z,-1.85
2022-11-25T06:15:16.370Z,-1.84
2022-11-25T06:17:45.433Z,-1.86
2022-11-25T06:20:23.553Z,-1.85
2022-11-25T06:22:55.312Z,-1.86
2022-11-25T06:25:30.118Z,-1.83
2022-11-25T06:28:12.372Z,-1.80
2022-11-25T06:30:43.457Z,-1.78
2022-11-25T06:33:18.709Z,-1.74
2022-11-25T06:35:50.411Z,-1.62
2022-11-25T06:38:18.699Z,-1.60
2022-11-25T06:40:47.142Z,-1.53
2022-11-25T06:43:15.539Z,-1.49
2022-11-25T06:45:43.748Z,-1.36
2022-11-25T06:48:12.045Z,-1.02
2022-11-25T06:50:40.359Z,-0.96
2022-11-25T06:53:09.986Z,-0.96
2022-11-25T06:55:38.430Z,-0.90
2022-11-25T06:58:34.322Z,-0.94
2022-11-25T07:00:56.479Z,-0.99
2022-11-25T07:03:24.904Z,-0.95
2022-11-25T07:05:53.266Z,-0.92
2022-11-25T07:08:26.392Z,-0.87
2022-11-25T07:10:56.691Z,-0.71
2022-11-25T07:13:25.025Z,-0.59
2022-11-25T07:15:53.407Z,-0.42
2022-11-25T07:18:21.692Z,-0.14
2022-11-25T07:20:49.932Z,-0.07
2022-11-25T07:23:18.221Z,0.21
2022-11-25T07:25:49.081Z,0.43
2022-11-25T07:28:17.325Z,0.57
2022-11-25T07:33:34.152Z,0.89
2022-11-25T07:36:06.350Z,1.12
2022-11-25T07:38:35.812Z,1.33
2022-11-25T07:41:11.100Z,1.52
2022-11-25T07:43:39.950Z,1.51
2022-11-25T07:46:13.272Z,1.32
2022-11-25T07:48:42.179Z,1.73
2022-11-25T07:51:16.435Z,1.96
2022-11-25T07:53:44.867Z,2.07
2022-11-25T07:56:15.250Z,2.38
2022-11-25T07:58:45.996Z,2.82
2022-11-25T08:01:15.873Z,2.86
2022-11-25T08:03:44.750Z,3.12
2022-11-25T08:06:15.101Z,3.36
2022-11-25T08:08:44.403Z,3.46
2022-11-25T08:11:15.656Z,3.40
2022-11-25T08:13:44.288Z,3.40
2022-11-25T08:16:14.125Z,3.85
2022-11-25T08:18:42.522Z,4.18
2022-11-25T08:21:12.421Z,4.54
2022-11-25T08:23:43.371Z,5.15
2022-11-25T08:26:13.437Z,5.28
2022-11-25T08:28:43.461Z,5.41
2022-11-25T08:31:13.759Z,5.24
2022-11-25T08:33:42.940Z,5.30
2022-11-25T08:36:12.711Z,5.53
2022-11-25T08:38:42.197Z,5.73
2022-11-25T08:41:12.536Z,6.01
2022-11-25T08:43:42.986Z,6.14
2022-11-25T08:46:13.340Z,5.12
2022-11-25T08:48:42.411Z,5.14
2022-11-25T08:51:12.091Z,5.52
2022-11-25T08:53:41.111Z,5.68
2022-11-25T08:56:10.510Z,5.77
2022-11-25T08:58:39.644Z,5.73
2022-11-25T09:01:10.420Z,6.08
2022-11-25T09:03:40.576Z,6.36
2022-11-25T09:06:10.294Z,6.52
2022-11-25T09:08:39.883Z,6.77
2022-11-25T09:11:09.291Z,7.24
2022-11-25T09:13:38.235Z,7.31
2022-11-25T09:16:08.992Z,7.76
2022-11-25T09:18:40.012Z,8.05
2022-11-25T09:21:11.070Z,8.08
2022-11-25T09:23:40.748Z,8.24
2022-11-25T09:26:09.752Z,8.67
2022-11-25T09:28:38.063Z,8.37
2022-11-25T09:31:10.706Z,8.50
2022-11-25T09:33:40.443Z,8.86
2022-11-25T09:36:11.494Z,9.18
2022-11-25T09:38:43.162Z,9.51
2022-11-25T09:41:40.763Z,9.62
2022-11-25T09:44:37.385Z,9.92
2022-11-25T09:47:10.587Z,9.82
2022-11-25T09:49:51.860Z,9.50
2022-11-25T09:52:27.630Z,10.10
2022-11-25T09:55:06.495Z,9.85
2022-11-25T09:57:44.519Z,9.98
2022-11-25T10:00:15.429Z,10.36
2022-11-25T10:02:49.260Z,10.90
2022-11-25T10:05:22.782Z,10.68
2022-11-25T10:07:54.237Z,10.68
2022-11-25T10:10:27.216Z,10.95
2022-11-25T10:12:57.503Z,11.40
2022-11-25T10:15:28.656Z,11.26
2022-11-25T10:18:00.643Z,11.53
2022-11-25T10:20:32.895Z,10.95
2022-11-25T10:23:02.910Z,11.56
2022-11-25T10:25:32.453Z,12.19
2022-11-25T10:28:02.337Z,12.49
2022-11-25T10:30:36.151Z,12.44
2022-11-25T10:33:07.936Z,12.83
2022-11-25T10:35:41.415Z,12.17
2022-11-25T10:38:19.047Z,12.33
2022-11-25T10:40:49.765Z,12.38
2022-11-25T10:43:18.307Z,12.29
2022-11-25T10:45:50.661Z,12.37
2022-11-25T10:48:24.692Z,12.35
2022-11-25T10:51:06.880Z,12.04
2022-11-25T10:53:35.267Z,11.76
2022-11-25T10:56:05.241Z,12.18
2022-11-25T10:58:35.669Z,12.30
2022-11-25T11:01:16.232Z,12.09
2022-11-25T11:03:46.173Z,12.54
2022-11-25T11:06:33.665Z,13.15
2022-11-25T11:09:02.339Z,13.28
2022-11-25T11:11:31.802Z,13.46
2022-11-25T11:14:13.877Z,13.49
2022-11-25T11:16:45.649Z,13.70
2022-11-25T11:19:24.691Z,13.93
2022-11-25T11:21:54.582Z,13.66
2022-11-25T11:24:30.270Z,13.14
2022-11-25T11:27:12.885Z,14.07
2022-11-25T11:29:41.377Z,13.99
2022-11-25T11:32:22.207Z,13.64
2022-11-25T11:35:00.577Z,13.00
2022-11-25T11:37:43.832Z,13.44
2022-11-25T11:40:38.312Z,13.19
2022-11-25T11:43:25.443Z,12.98
2022-11-25T11:46:01.598Z,13.63
2022-11-25T11:48:39.507Z,13.60
2022-11-25T11:51:18.447Z,13.52
2022-11-25T11:53:58.171Z,13.54
2022-11-25T11:56:36.097Z,13.45
2022-11-25T11:59:25.808Z,13.80
2022-11-25T12:02:07.456Z,14.11
2022-11-25T12:04:40.580Z,13.87
2022-11-25T12:07:15.499Z,13.87
2022-11-25T12:09:51.578Z,13.83
2022-11-25T12:12:20.627Z,13.76
2022-11-25T12:14:51.941Z,13.72
2022-11-25T12:17:24.246Z,13.87
2022-11-25T12:19:58.046Z,13.35
2022-11-25T12:22:29.116Z,13.84
2022-11-25T12:25:03.444Z,13.76
2022-11-25T12:27:36.015Z,13.79
2022-11-25T12:30:09.131Z,14.16
2022-11-25T12:32:55.274Z,14.53
2022-11-25T12:35:32.713Z,14.17
2022-11-25T12:38:06.416Z,13.67
2022-11-25T12:40:42.078Z,13.28
2022-11-25T12:43:30.238Z,12.03
2022-11-25T12:46:07.618Z,12.29
2022-11-25T12:48:41.241Z,11.28
2022-11-25T12:51:19.720Z,11.52
2022-11-25T12:53:56.246Z,11.27
2022-11-25T12:56:29.116Z,10.65
2022-11-25T12:59:16.619Z,10.47
2022-11-25T13:02:01.784Z,10.44
2022-11-25T13:05:32.965Z,10.48
2022-11-25T13:08:01.215Z,9.84
2022-11-25T13:10:49.291Z,10.11
2022-11-25T13:13:26.713Z,9.72
2022-11-25T13:15:56.821Z,9.54
2022-11-25T13:18:28.296Z,9.32
2022-11-25T13:20:57.642Z,9.14
2022-11-25T13:23:30.910Z,9.16
2022-11-25T13:26:37.788Z,8.93
2022-11-25T13:29:42.345Z,8.82
2022-11-25T13:35:33.900Z,8.70
2022-11-25T13:38:02.720Z,8.54
2022-11-25T13:40:35.904Z,8.31
2022-11-25T13:43:04.556Z,8.31
2022-11-25T13:45:35.451Z,8.13
2022-11-25T13:48:08.628Z,7.94
2022-11-25T13:51:03.586Z,8.01
2022-11-25T13:53:31.728Z,7.94
2022-11-25T13:56:14.742Z,7.86
2022-11-25T13:59:32.150Z,7.74
2022-11-25T14:02:45.078Z,7.63
2022-11-25T14:05:48.799Z,7.60
2022-11-25T14:08:22.446Z,7.64
2022-11-25T14:10:56.528Z,7.73
2022-11-25T14:13:51.062Z,7.73
2022-11-25T14:19:52.266Z,7.73
2022-11-25T14:22:33.659Z,7.57
2022-11-25T14:25:14.483Z,7.61
2022-11-25T14:27:48.007Z,7.58
2022-11-25T14:30:17.179Z,7.45
2022-11-25T14:32:49.099Z,7.39
2022-11-25T14:35:22.036Z,7.23
2022-11-25T14:37:52.127Z,7.19
2022-11-25T14:40:23.888Z,7.13
2022-11-25T14:42:55.008Z,7.00
2022-11-25T14:45:25.648Z,6.93
2022-11-25T14:47:54.310Z,6.84
2022-11-25T14:50:40.494Z,6.76
2022-11-25T14:53:10.099Z,6.66
2022-11-25T14:55:39.277Z,6.63
2022-11-25T14:58:07.588Z,6.57
2022-11-25T15:00:35.927Z,6.46
2022-11-25T15:03:06.658Z,6.36
2022-11-25T15:05:37.798Z,6.25
2022-11-25T15:08:13.068Z,6.13
2022-11-25T15:10:44.384Z,6.01
2022-11-25T15:13:26.153Z,5.99
2022-11-25T15:15:55.974Z,5.92
2022-11-25T15:18:25.452Z,5.76
2022-11-25T15:20:58.811Z,5.63
2022-11-25T15:23:32.637Z,5.53
2022-11-25T15:26:01.305Z,5.49
2022-11-25T15:28:35.875Z,5.51
2022-11-25T15:31:09.864Z,5.42
2022-11-25T15:33:38.673Z,5.30
2022-11-25T15:36:08.853Z,5.15
2022-11-25T15:38:42.818Z,5.02
2022-11-25T15:41:26.719Z,4.97
2022-11-25T15:43:59.500Z,4.80
2022-11-25T15:46:28.339Z,4.64
2022-11-25T15:48:59.387Z,4.51
2022-11-25T15:51:41.734Z,4.46
2022-11-25T15:54:17.816Z,4.51
2022-11-25T15:56:49.670Z,4.53
2022-11-25T15:59:48.713Z,4.54
2022-11-25T16:02:39.064Z,4.34
2022-11-25T16:05:31.908Z,4.26
2022-11-25T16:08:23.691Z,4.33
2022-11-25T16:10:54.657Z,4.46
2022-11-25T16:13:33.577Z,4.46
2022-11-25T16:16:17.977Z,4.56
2022-11-25T16:19:09.075Z,4.68
2022-11-25T16:21:43.117Z,4.55
2022-11-25T16:24:26.980Z,4.48
2022-11-25T16:27:00.409Z,4.33
2022-11-25T16:29:32.115Z,4.20
2022-11-25T16:32:01.257Z,4.21
2022-11-25T16:34:33.563Z,4.25
2022-11-25T16:37:02.334Z,4.27
2022-11-25T16:39:32.228Z,4.39
2022-11-25T16:42:04.168Z,4.27
2022-11-25T16:44:34.855Z,4.37
2022-11-25T16:47:04.972Z,4.36
2022-11-25T16:49:35.775Z,4.21
2022-11-25T16:52:04.480Z,4.35
2022-11-25T16:54:35.292Z,4.13
2022-11-25T16:57:05.575Z,4.20
2022-11-25T16:59:37.358Z,4.36
2022-11-25T17:02:15.366Z,4.39
2022-11-25T17:04:44.230Z,4.46
2022-11-25T17:07:32.115Z,4.76
2022-11-25T17:10:03.255Z,4.62
2022-11-25T17:12:33.536Z,4.34
2022-11-25T17:15:03.160Z,4.34
2022-11-25T17:17:32.287Z,4.14
2022-11-25T17:20:00.929Z,4.12
2022-11-25T17:22:34.634Z,4.08
2022-11-25T17:25:13.758Z,4.04
2022-11-25T17:27:46.259Z,4.12
2022-11-25T17:30:19.577Z,4.07
2022-11-25T17:32:49.225Z,4.09
2022-11-25T17:35:20.831Z,4.16
2022-11-25T17:37:50.682Z,4.27
2022-11-25T17:40:22.568Z,4.07
2022-11-25T17:42:55.013Z,4.16
2022-11-25T17:45:24.282Z,4.05
2022-11-25T17:47:53.160Z,4.14
2022-11-25T17:50:23.740Z,4.21
2022-11-25T17:52:54.943Z,4.08
2022-11-25T17:55:26.067Z,4.06
2022-11-25T17:57:54.511Z,3.98
2022-11-25T18:00:25.583Z,3.88
2022-11-25T18:02:54.900Z,3.87
2022-11-25T18:05:25.176Z,3.86
2022-11-25T18:07:55.164Z,3.81
2022-11-25T18:10:27.324Z,3.83
2022-11-25T18:12:58.270Z,3.79
2022-11-25T18:15:29.803Z,3.83
2022-11-25T18:18:03.190Z,3.79
2022-11-25T18:20:33.259Z,3.78
2022-11-25T18:23:04.229Z,3.81
2022-11-25T18:25:36.744Z,3.73
2022-11-25T18:28:07.894Z,3.77
2022-11-25T18:30:42.598Z,3.71
2022-11-25T18:33:15.340Z,3.79
2022-11-25T18:35:46.027Z,3.74
2022-11-25T18:38:15.065Z,3.70
2022-11-25T18:40:53.057Z,3.59
2022-11-25T18:43:26.213Z,3.53
2022-11-25T18:45:57.735Z,3.64
2022-11-25T18:48:29.739Z,3.86
2022-11-25T18:50:59.526Z,3.82
2022-11-25T18:53:28.571Z,3.99
2022-11-25T18:55:59.595Z,4.07
2022-11-25T18:58:29.494Z,4.00
2022-11-25T19:01:04.732Z,3.95
2022-11-25T19:03:34.751Z,3.91
2022-11-25T19:06:04.366Z,3.89
2022-11-25T19:08:35.362Z,3.91
2022-11-25T19:11:07.706Z,3.88
2022-11-25T19:13:38.036Z,3.86
2022-11-25T19:16:12.279Z,3.90
2022-11-25T19:18:42.198Z,3.79
2022-11-25T19:21:17.938Z,3.96
2022-11-25T19:23:48.969Z,3.89
2022-11-25T19:26:23.376Z,3.91
2022-11-25T19:28:59.281Z,3.75
2022-11-25T19:31:32.104Z,3.60
2022-11-25T19:34:06.032Z,3.50
2022-11-25T19:36:38.209Z,3.36
2022-11-25T19:39:12.912Z,3.29
2022-11-25T19:41:45.296Z,3.24
2022-11-25T19:44:16.851Z,3.17
2022-11-25T19:47:14.380Z,3.12
2022-11-25T19:49:42.597Z,3.14
2022-11-25T19:52:18.861Z,3.19
2022-11-25T19:54:49.230Z,3.22
2022-11-25T19:57:24.123Z,3.22
2022-11-25T19:59:55.989Z,3.28
2022-11-25T20:02:33.119Z,3.23
2022-11-25T20:05:03.817Z,3.15
2022-11-25T20:07:35.150Z,3.07
2022-11-25T20:10:18.353Z,2.97
2022-11-25T20:12:50.440Z,2.99
2022-11-25T20:15:20.966Z,2.89
2022-11-25T20:17:53.017Z,2.83
2022-11-25T20:20:28.114Z,2.80
2022-11-25T20:23:01.890Z,2.79
2022-11-25T20:25:31.989Z,2.78
2022-11-25T20:28:03.761Z,2.81
2022-11-25T20:30:33.857Z,2.87
2022-11-25T20:33:04.131Z,2.91
2022-11-25T20:35:34.389Z,2.96
2022-11-25T20:38:05.006Z,2.83
2022-11-25T20:40:40.501Z,2.65
2022-11-25T20:43:27.885Z,2.57
2022-11-25T20:45:58.339Z,2.48
2022-11-25T20:48:29.482Z,2.56
2022-11-25T20:51:01.535Z,2.50
2022-11-25T20:53:33.953Z,2.40
2022-11-25T20:56:06.444Z,2.42
2022-11-25T20:58:37.918Z,2.34
2022-11-25T21:01:08.657Z,2.23
2022-11-25T21:03:37.781Z,2.14
2022-11-25T21:06:18.850Z,2.10
2022-11-25T21:08:51.594Z,2.14
2022-11-25T21:11:21.908Z,2.10
2022-11-25T21:13:53.564Z,2.19
2022-11-25T21:16:24.085Z,2.53
2022-11-25T21:18:53.397Z,2.57
2022-11-25T21:21:30.519Z,2.61
2022-11-25T21:24:00.050Z,2.56
2022-11-25T21:26:29.416Z,2.33
2022-11-25T21:28:59.793Z,2.18
2022-11-25T21:31:29.389Z,2.07
2022-11-25T21:34:01.240Z,1.96
2022-11-25T21:36:31.553Z,1.79
2022-11-25T21:39:05.064Z,1.81
2022-11-25T21:41:34.445Z,1.83
2022-11-25T21:44:07.190Z,1.92
2022-11-25T21:46:36.887Z,2.06
2022-11-25T21:49:11.495Z,1.88
2022-11-25T21:51:40.720Z,1.96
2022-11-25T21:54:11.257Z,1.85
2022-11-25T21:56:39.951Z,1.83
2022-11-25T21:59:17.510Z,1.80
2022-11-25T22:01:47.156Z,1.90
2022-11-25T22:04:17.982Z,1.78
2022-11-25T22:06:46.809Z,1.69
2022-11-25T22:09:15.555Z,1.67
2022-11-25T22:11:46.030Z,1.89
2022-11-25T22:14:23.538Z,2.03
2022-11-25T22:16:52.127Z,1.90
2022-11-25T22:19:21.615Z,1.70
2022-11-25T22:21:50.328Z,1.65
2022-11-25T22:24:19.820Z,1.68
2022-11-25T22:26:53.360Z,1.42
2022-11-25T22:29:31.871Z,1.37
2022-11-25T22:32:00.287Z,1.20
2022-11-25T22:34:28.632Z,1.09
2022-11-25T22:36:56.917Z,0.98
2022-11-25T22:39:26.540Z,0.97
2022-11-25T22:41:56.941Z,1.12
2022-11-25T22:44:35.309Z,1.13
2022-11-25T22:47:04.036Z,1.01
2022-11-25T22:49:36.387Z,1.03
2022-11-25T22:52:04.763Z,1.04
2022-11-25T22:54:34.287Z,1.13
2022-11-25T22:57:02.915Z,1.10
2022-11-25T22:59:32.722Z,1.42
2022-11-25T23:02:01.314Z,1.44
2022-11-25T23:04:29.664Z,1.18
2022-11-25T23:06:58.171Z,0.99
2022-11-25T23:09:26.588Z,0.88
2022-11-25T23:11:54.995Z,0.78
2022-11-25T23:14:24.244Z,0.78
2022-11-25T23:16:54.543Z,0.68
2022-11-25T23:19:22.970Z,0.65
2022-11-25T23:21:51.450Z,0.80
2022-11-25T23:24:19.727Z,0.81
2022-11-25T23:29:33.756Z,0.79
2022-11-25T23:32:05.887Z,0.63
2022-11-25T23:34:34.844Z,0.54
2022-11-25T23:37:03.394Z,0.47
2022-11-25T23:39:32.338Z,0.49
2022-11-25T23:42:00.543Z,0.50
2022-11-25T23:44:30.883Z,0.52
2022-11-25T23:47:01.592Z,0.47
2022-11-25T23:49:33.136Z,0.41
2022-11-25T23:52:07.535Z,0.51
2022-11-25T23:54:40.841Z,0.40
2022-11-25T23:57:14.313Z,0.36
2022-11-25T23:59:42.727Z,0.31
